Alpine Moment — VREV7 — position and weather

sailwx.info

Track history (hours):
 
Tides and Currents Weather Stations Pressure Air Temp Water Temp Dewpoint Dewpoint Depression Visibility Wind Speed Wind Dir Waves Ship Positions

Alpine Moment

Last reported at 2014-Aug-28 17:31 UTC. Time now 2014-Sep-03 02:24 UTC.
Position N 34°07' W 008°28'.

Length 183 m; draft 10.4 m.

Type: Tanker. MMSI: 477185800.

Date/timePositionNaut miles runAvg speedWind from/ knotsBaromVisibWave heightAir tempDewpointWater temp
2014-Aug-28 17:31N 34°07' W 008°28'1313.4
2014-Aug-28 16:33N 34°16' W 008°17'17912.4
2014-Aug-28 02:07N 36°01' W 005°21'18913.9
2014-Aug-27 12:32N 36°28' W 001°28'2218.9
2014-Aug-27 11:24N 36°29' W 001°01'7 8.2
2014-Aug-27 10:34N 36°29' W 000°53'1414.3
2014-Aug-27 09:33N 36°30' W 000°35'1414.4
2014-Aug-27 08:33N 36°33' W 000°18'1414.1
2014-Aug-27 07:33N 36°39' W 000°02'1413.8
2014-Aug-27 06:33N 36°44' E 000°14'1313.1
2014-Aug-27 05:33N 36°48' E 000°30'1313.2
2014-Aug-27 04:33N 36°53' E 000°45'1414.0
2014-Aug-27 03:33N 36°58' E 001°02'1413.8
2014-Aug-27 02:31N 37°01' E 001°19'1313.8
2014-Aug-27 01:33N 37°03' E 001°36'1414.2
2014-Aug-27 00:33N 37°06' E 001°53'1414.2
2014-Aug-26 23:33N 37°08' E 002°10'1515.1
2014-Aug-26 22:33N 37°11' E 002°29'1313.5
2014-Aug-26 21:33N 37°13' E 002°46'1414.1
2014-Aug-26 20:32N 37°15' E 003°04'1413.9
2014-Aug-26 19:33N 37°17' E 003°21'1414.1
2014-Aug-26 18:33N 37°18' E 003°38'1514.6
2014-Aug-26 17:33N 37°20' E 003°57'1914.6
2014-Aug-26 16:17N 37°22' E 004°20'1114.5
2014-Aug-26 15:33N 37°23' E 004°33'1614.3
2014-Aug-26 14:26N 37°25' E 004°53'1314.6
2014-Aug-26 13:33N 37°26' E 005°09'1514.8
2014-Aug-26 12:34N 37°28' E 005°28'1514.9
2014-Aug-26 11:33N 37°30' E 005°46'1514.5
2014-Aug-26 10:33N 37°31' E 006°05'1414.2
2014-Aug-26 09:33N 37°33' E 006°22'2913.9
2014-Aug-26 07:28N 37°36' E 006°59'2513.0
2014-Aug-26 05:33N 37°40' E 007°30'1413.4
2014-Aug-26 04:30N 37°39' E 007°48'1713.0
2014-Aug-26 03:11N 37°39' E 008°09'1013.3
2014-Aug-26 02:28N 37°39' E 008°21'1513.4
2014-Aug-26 01:19N 37°39' E 008°41'1113.5
2014-Aug-26 00:32N 37°39' E 008°54'1712.9
2014-Aug-25 23:14N 37°39' E 009°15'912.8
2014-Aug-25 22:33N 37°39' E 009°26'1312.7
2014-Aug-25 21:33N 37°39' E 009°42'1313.0
2014-Aug-25 20:33N 37°39' E 009°58'1313.2
2014-Aug-25 19:33N 37°39' E 010°15'1313.0
2014-Aug-25 18:33N 37°39' E 010°32'1212.5
2014-Aug-25 17:34N 37°37' E 010°47'1413.4
2014-Aug-25 16:30N 37°30' E 011°03'1313.4
2014-Aug-25 15:32N 37°24' E 011°17'4013.2
2014-Aug-25 12:33N 37°05' E 012°00'9412.9
2014-Aug-25 05:13N 36°29' E 013°49'1312.7
2014-Aug-25 04:10N 36°26' E 014°05'812.7
2014-Aug-25 03:31N 36°23' E 014°15'1212.8
2014-Aug-25 02:33N 36°20' E 014°30'  
Track history (hours):
 
Tides and Currents Weather Stations Pressure Air Temp Water Temp Dewpoint Dewpoint Depression Visibility Wind Speed Wind Dir Waves Ship Positions

Alpine Moment

Last reported at 2014-Aug-28 17:31 UTC. Time now 2014-Sep-03 02:24 UTC.
Position N 34°07' W 008°28'.

Length 183 m; draft 10.4 m.

Type: Tanker. MMSI: 477185800.

Date/timePositionNaut miles runAvg speedWind from/ knotsBaromVisibWave heightAir tempDewpointWater temp
2014-Aug-28 17:31N 34°07' W 008°28'1313.4
2014-Aug-28 16:33N 34°16' W 008°17'17912.4
2014-Aug-28 02:07N 36°01' W 005°21'18913.9
2014-Aug-27 12:32N 36°28' W 001°28'2218.9
2014-Aug-27 11:24N 36°29' W 001°01'7 8.2
2014-Aug-27 10:34N 36°29' W 000°53'1414.3
2014-Aug-27 09:33N 36°30' W 000°35'1414.4
2014-Aug-27 08:33N 36°33' W 000°18'1414.1
2014-Aug-27 07:33N 36°39' W 000°02'1413.8
2014-Aug-27 06:33N 36°44' E 000°14'1313.1
2014-Aug-27 05:33N 36°48' E 000°30'1313.2
2014-Aug-27 04:33N 36°53' E 000°45'1414.0
2014-Aug-27 03:33N 36°58' E 001°02'1413.8
2014-Aug-27 02:31N 37°01' E 001°19'1313.8
2014-Aug-27 01:33N 37°03' E 001°36'1414.2
2014-Aug-27 00:33N 37°06' E 001°53'1414.2
2014-Aug-26 23:33N 37°08' E 002°10'1515.1
2014-Aug-26 22:33N 37°11' E 002°29'1313.5
2014-Aug-26 21:33N 37°13' E 002°46'1414.1
2014-Aug-26 20:32N 37°15' E 003°04'1413.9
2014-Aug-26 19:33N 37°17' E 003°21'1414.1
2014-Aug-26 18:33N 37°18' E 003°38'1514.6
2014-Aug-26 17:33N 37°20' E 003°57'1914.6
2014-Aug-26 16:17N 37°22' E 004°20'1114.5
2014-Aug-26 15:33N 37°23' E 004°33'1614.3
2014-Aug-26 14:26N 37°25' E 004°53'1314.6
2014-Aug-26 13:33N 37°26' E 005°09'1514.8
2014-Aug-26 12:34N 37°28' E 005°28'1514.9
2014-Aug-26 11:33N 37°30' E 005°46'1514.5
2014-Aug-26 10:33N 37°31' E 006°05'1414.2
2014-Aug-26 09:33N 37°33' E 006°22'2913.9
2014-Aug-26 07:28N 37°36' E 006°59'2513.0
2014-Aug-26 05:33N 37°40' E 007°30'1413.4
2014-Aug-26 04:30N 37°39' E 007°48'1713.0
2014-Aug-26 03:11N 37°39' E 008°09'1013.3
2014-Aug-26 02:28N 37°39' E 008°21'1513.4
2014-Aug-26 01:19N 37°39' E 008°41'1113.5
2014-Aug-26 00:32N 37°39' E 008°54'1712.9
2014-Aug-25 23:14N 37°39' E 009°15'912.8
2014-Aug-25 22:33N 37°39' E 009°26'1312.7
2014-Aug-25 21:33N 37°39' E 009°42'1313.0
2014-Aug-25 20:33N 37°39' E 009°58'1313.2
2014-Aug-25 19:33N 37°39' E 010°15'1313.0
2014-Aug-25 18:33N 37°39' E 010°32'1212.5
2014-Aug-25 17:34N 37°37' E 010°47'1413.4
2014-Aug-25 16:30N 37°30' E 011°03'1313.4
2014-Aug-25 15:32N 37°24' E 011°17'4013.2
2014-Aug-25 12:33N 37°05' E 012°00'9412.9
2014-Aug-25 05:13N 36°29' E 013°49'1312.7
2014-Aug-25 04:10N 36°26' E 014°05'812.7
2014-Aug-25 03:31N 36°23' E 014°15'1212.8
2014-Aug-25 02:33N 36°20' E 014°30'  

Dump ship's entire track history